San Francisco, California
Current Conditions -  °F | °C
As of 4:56 PM on Saturday 22 Nov 2014 (Local Time) from KSFO Reporting Station
Broken Clouds Broken Clouds  
Wind Chill: 16°   Ceiling: 20000
Heat Index: 16°   Visibility: 10mi
Dew Point: 13°   Wind: 20mph
Humidity: 83%   Direction: 280°W
Pressure: 30.15"   Gusts: NA
Location:  37.78°N, 122.42°W
Report Text: KSFO 230056Z 28017KT 10SM FEW150 BKN200 16/13 A3015 RMK AO2 SLP208 T01610133
Loading
Personal Weather Stations






























Interactive Weather Map New forecast layout! Learn more

10-Day Weather Forecast

Advertisements
Track Severe Weather on mobile